sensor_id;sensor_type;location;lat;lon;timestamp;P1;durP1;ratioP1;P2;durP2;ratioP2
52668;SDS011;59898;52.786;6.892;2023-03-25T00:00:42;10.75;;;3.20;;
52668;SDS011;59898;52.786;6.892;2023-03-25T00:04:03;6.90;;;2.42;;
52668;SDS011;59898;52.786;6.892;2023-03-25T00:07:24;6.32;;;2.83;;
52668;SDS011;59898;52.786;6.892;2023-03-25T00:10:45;8.20;;;3.88;;
52668;SDS011;59898;52.786;6.892;2023-03-25T00:14:12;6.15;;;3.72;;
52668;SDS011;59898;52.786;6.892;2023-03-25T00:17:36;4.40;;;2.75;;
52668;SDS011;59898;52.786;6.892;2023-03-25T00:20:57;9.05;;;2.97;;
52668;SDS011;59898;52.786;6.892;2023-03-25T00:24:19;7.22;;;2.85;;
52668;SDS011;59898;52.786;6.892;2023-03-25T00:27:39;8.98;;;3.30;;
52668;SDS011;59898;52.786;6.892;2023-03-25T00:34:30;6.43;;;3.38;;
52668;SDS011;59898;52.786;6.892;2023-03-25T00:37:51;7.57;;;3.58;;
52668;SDS011;59898;52.786;6.892;2023-03-25T00:41:17;8.18;;;4.78;;
52668;SDS011;59898;52.786;6.892;2023-03-25T00:44:44;7.75;;;3.72;;
52668;SDS011;59898;52.786;6.892;2023-03-25T00:48:07;9.25;;;4.00;;
52668;SDS011;59898;52.786;6.892;2023-03-25T00:51:28;8.68;;;4.00;;
52668;SDS011;59898;52.786;6.892;2023-03-25T00:54:53;10.43;;;5.28;;
52668;SDS011;59898;52.786;6.892;2023-03-25T00:58:13;8.82;;;4.43;;
52668;SDS011;59898;52.786;6.892;2023-03-25T01:01:34;8.63;;;4.55;;
52668;SDS011;59898;52.786;6.892;2023-03-25T01:04:58;7.60;;;3.97;;
52668;SDS011;59898;52.786;6.892;2023-03-25T01:08:20;8.88;;;5.05;;
52668;SDS011;59898;52.786;6.892;2023-03-25T01:11:44;7.00;;;4.35;;
52668;SDS011;59898;52.786;6.892;2023-03-25T01:15:06;9.18;;;4.57;;
52668;SDS011;59898;52.786;6.892;2023-03-25T01:18:28;6.45;;;4.40;;
52668;SDS011;59898;52.786;6.892;2023-03-25T01:21:53;9.57;;;4.07;;
52668;SDS011;59898;52.786;6.892;2023-03-25T01:25:14;9.90;;;5.07;;
52668;SDS011;59898;52.786;6.892;2023-03-25T01:28:36;10.98;;;4.35;;
52668;SDS011;59898;52.786;6.892;2023-03-25T01:31:57;10.70;;;4.63;;
52668;SDS011;59898;52.786;6.892;2023-03-25T01:35:17;7.70;;;4.55;;
52668;SDS011;59898;52.786;6.892;2023-03-25T01:38:39;9.02;;;4.95;;
52668;SDS011;59898;52.786;6.892;2023-03-25T01:42:00;14.00;;;4.53;;
52668;SDS011;59898;52.786;6.892;2023-03-25T01:45:30;10.60;;;3.63;;
52668;SDS011;59898;52.786;6.892;2023-03-25T01:48:51;9.73;;;4.07;;
52668;SDS011;59898;52.786;6.892;2023-03-25T01:52:17;8.15;;;3.25;;
52668;SDS011;59898;52.786;6.892;2023-03-25T01:55:43;10.38;;;3.10;;
52668;SDS011;59898;52.786;6.892;2023-03-25T01:59:05;9.70;;;4.32;;
52668;SDS011;59898;52.786;6.892;2023-03-25T02:02:28;10.85;;;4.32;;
52668;SDS011;59898;52.786;6.892;2023-03-25T02:05:55;7.35;;;3.42;;
52668;SDS011;59898;52.786;6.892;2023-03-25T02:09:27;10.20;;;3.03;;
52668;SDS011;59898;52.786;6.892;2023-03-25T02:12:48;6.78;;;3.03;;
52668;SDS011;59898;52.786;6.892;2023-03-25T02:16:19;13.00;;;3.60;;
52668;SDS011;59898;52.786;6.892;2023-03-25T02:23:37;10.48;;;3.20;;
52668;SDS011;59898;52.786;6.892;2023-03-25T02:27:13;8.52;;;3.85;;
52668;SDS011;59898;52.786;6.892;2023-03-25T02:30:50;12.35;;;4.53;;
52668;SDS011;59898;52.786;6.892;2023-03-25T02:38:10;17.10;;;4.75;;
52668;SDS011;59898;52.786;6.892;2023-03-25T02:44:59;15.05;;;3.35;;
52668;SDS011;59898;52.786;6.892;2023-03-25T02:48:33;9.10;;;3.38;;
52668;SDS011;59898;52.786;6.892;2023-03-25T02:52:01;13.70;;;4.03;;
52668;SDS011;59898;52.786;6.892;2023-03-25T02:55:36;8.00;;;3.70;;
52668;SDS011;59898;52.786;6.892;2023-03-25T02:59:00;10.98;;;4.10;;
52668;SDS011;59898;52.786;6.892;2023-03-25T03:02:24;12.90;;;4.25;;
52668;SDS011;59898;52.786;6.892;2023-03-25T03:05:49;10.60;;;4.30;;
52668;SDS011;59898;52.786;6.892;2023-03-25T03:09:14;14.17;;;4.07;;
52668;SDS011;59898;52.786;6.892;2023-03-25T03:16:54;16.50;;;3.72;;
52668;SDS011;59898;52.786;6.892;2023-03-25T03:20:38;9.15;;;3.42;;
52668;SDS011;59898;52.786;6.892;2023-03-25T03:24:18;11.57;;;3.63;;
52668;SDS011;59898;52.786;6.892;2023-03-25T03:28:06;10.75;;;3.50;;
52668;SDS011;59898;52.786;6.892;2023-03-25T03:35:16;12.60;;;3.35;;
52668;SDS011;59898;52.786;6.892;2023-03-25T03:38:43;12.55;;;4.03;;
52668;SDS011;59898;52.786;6.892;2023-03-25T03:42:10;14.23;;;3.80;;
52668;SDS011;59898;52.786;6.892;2023-03-25T03:45:50;10.82;;;4.53;;
52668;SDS011;59898;52.786;6.892;2023-03-25T03:49:16;11.82;;;4.28;;
52668;SDS011;59898;52.786;6.892;2023-03-25T03:52:46;13.32;;;4.47;;
52668;SDS011;59898;52.786;6.892;2023-03-25T03:56:12;12.40;;;4.45;;
52668;SDS011;59898;52.786;6.892;2023-03-25T03:59:43;8.10;;;3.17;;
52668;SDS011;59898;52.786;6.892;2023-03-25T04:03:14;16.27;;;3.85;;
52668;SDS011;59898;52.786;6.892;2023-03-25T04:10:08;12.43;;;4.35;;
52668;SDS011;59898;52.786;6.892;2023-03-25T04:13:39;8.43;;;4.00;;
52668;SDS011;59898;52.786;6.892;2023-03-25T04:17:03;11.85;;;3.83;;
52668;SDS011;59898;52.786;6.892;2023-03-25T04:20:25;8.85;;;3.72;;
52668;SDS011;59898;52.786;6.892;2023-03-25T04:23:48;15.32;;;3.83;;
52668;SDS011;59898;52.786;6.892;2023-03-25T04:27:10;11.90;;;3.30;;
52668;SDS011;59898;52.786;6.892;2023-03-25T04:30:32;10.57;;;3.72;;
52668;SDS011;59898;52.786;6.892;2023-03-25T04:33:53;11.43;;;3.88;;
52668;SDS011;59898;52.786;6.892;2023-03-25T04:37:13;10.80;;;3.63;;
52668;SDS011;59898;52.786;6.892;2023-03-25T04:40:34;10.40;;;3.67;;
52668;SDS011;59898;52.786;6.892;2023-03-25T04:43:55;13.73;;;4.18;;
52668;SDS011;59898;52.786;6.892;2023-03-25T04:47:17;10.38;;;3.90;;
52668;SDS011;59898;52.786;6.892;2023-03-25T04:50:42;11.70;;;4.40;;
52668;SDS011;59898;52.786;6.892;2023-03-25T04:54:03;7.15;;;3.97;;
52668;SDS011;59898;52.786;6.892;2023-03-25T04:57:23;11.00;;;4.68;;
52668;SDS011;59898;52.786;6.892;2023-03-25T05:00:46;12.77;;;4.10;;
52668;SDS011;59898;52.786;6.892;2023-03-25T05:04:09;9.50;;;4.18;;
52668;SDS011;59898;52.786;6.892;2023-03-25T05:07:31;15.27;;;4.88;;
52668;SDS011;59898;52.786;6.892;2023-03-25T05:10:52;10.00;;;3.78;;
52668;SDS011;59898;52.786;6.892;2023-03-25T05:14:15;9.20;;;4.38;;
52668;SDS011;59898;52.786;6.892;2023-03-25T05:17:36;11.05;;;4.95;;
52668;SDS011;59898;52.786;6.892;2023-03-25T05:20:57;13.80;;;6.22;;
52668;SDS011;59898;52.786;6.892;2023-03-25T05:24:21;9.70;;;5.35;;
52668;SDS011;59898;52.786;6.892;2023-03-25T05:27:42;14.13;;;5.15;;
52668;SDS011;59898;52.786;6.892;2023-03-25T05:31:03;12.88;;;5.15;;
52668;SDS011;59898;52.786;6.892;2023-03-25T05:34:30;13.82;;;5.90;;
52668;SDS011;59898;52.786;6.892;2023-03-25T05:37:51;12.23;;;5.70;;
52668;SDS011;59898;52.786;6.892;2023-03-25T05:41:12;9.02;;;5.38;;
52668;SDS011;59898;52.786;6.892;2023-03-25T05:44:35;11.65;;;5.90;;
52668;SDS011;59898;52.786;6.892;2023-03-25T05:47:57;12.18;;;6.28;;
52668;SDS011;59898;52.786;6.892;2023-03-25T05:51:24;11.00;;;6.50;;
52668;SDS011;59898;52.786;6.892;2023-03-25T05:54:45;13.20;;;8.15;;
52668;SDS011;59898;52.786;6.892;2023-03-25T05:58:10;18.30;;;6.53;;
52668;SDS011;59898;52.786;6.892;2023-03-25T06:01:31;11.20;;;7.70;;
52668;SDS011;59898;52.786;6.892;2023-03-25T06:04:52;15.63;;;7.75;;
52668;SDS011;59898;52.786;6.892;2023-03-25T06:08:13;12.27;;;5.40;;
52668;SDS011;59898;52.786;6.892;2023-03-25T06:11:34;9.63;;;3.45;;
52668;SDS011;59898;52.786;6.892;2023-03-25T06:14:57;11.07;;;3.83;;
52668;SDS011;59898;52.786;6.892;2023-03-25T06:18:18;6.57;;;3.83;;
52668;SDS011;59898;52.786;6.892;2023-03-25T06:21:41;15.13;;;5.32;;
52668;SDS011;59898;52.786;6.892;2023-03-25T06:25:02;11.02;;;4.85;;
52668;SDS011;59898;52.786;6.892;2023-03-25T06:28:23;12.27;;;5.35;;
52668;SDS011;59898;52.786;6.892;2023-03-25T06:31:44;10.98;;;4.20;;
52668;SDS011;59898;52.786;6.892;2023-03-25T06:35:06;6.35;;;3.15;;
52668;SDS011;59898;52.786;6.892;2023-03-25T06:38:28;7.00;;;3.60;;
52668;SDS011;59898;52.786;6.892;2023-03-25T06:41:49;8.95;;;3.40;;
52668;SDS011;59898;52.786;6.892;2023-03-25T06:45:10;11.45;;;2.90;;
52668;SDS011;59898;52.786;6.892;2023-03-25T06:48:32;7.90;;;2.80;;
52668;SDS011;59898;52.786;6.892;2023-03-25T06:51:53;10.30;;;2.22;;
52668;SDS011;59898;52.786;6.892;2023-03-25T06:55:14;10.40;;;3.38;;
52668;SDS011;59898;52.786;6.892;2023-03-25T06:58:35;8.52;;;2.70;;
52668;SDS011;59898;52.786;6.892;2023-03-25T07:01:55;8.27;;;3.15;;
52668;SDS011;59898;52.786;6.892;2023-03-25T07:05:16;7.05;;;2.83;;
52668;SDS011;59898;52.786;6.892;2023-03-25T07:08:37;7.07;;;3.05;;
52668;SDS011;59898;52.786;6.892;2023-03-25T07:11:58;11.60;;;3.70;;
52668;SDS011;59898;52.786;6.892;2023-03-25T07:15:19;11.98;;;3.40;;
52668;SDS011;59898;52.786;6.892;2023-03-25T07:18:40;8.00;;;2.72;;
52668;SDS011;59898;52.786;6.892;2023-03-25T07:22:01;8.10;;;3.75;;
52668;SDS011;59898;52.786;6.892;2023-03-25T07:25:21;8.45;;;3.28;;
52668;SDS011;59898;52.786;6.892;2023-03-25T07:28:42;13.68;;;3.33;;
52668;SDS011;59898;52.786;6.892;2023-03-25T07:32:03;10.93;;;3.78;;
52668;SDS011;59898;52.786;6.892;2023-03-25T07:35:24;15.43;;;4.20;;
52668;SDS011;59898;52.786;6.892;2023-03-25T07:38:45;10.55;;;3.78;;
52668;SDS011;59898;52.786;6.892;2023-03-25T07:42:06;9.52;;;3.63;;
52668;SDS011;59898;52.786;6.892;2023-03-25T07:45:26;13.27;;;4.32;;
52668;SDS011;59898;52.786;6.892;2023-03-25T07:48:47;12.30;;;3.90;;
52668;SDS011;59898;52.786;6.892;2023-03-25T07:52:07;10.77;;;3.70;;
52668;SDS011;59898;52.786;6.892;2023-03-25T07:55:29;12.40;;;4.75;;
52668;SDS011;59898;52.786;6.892;2023-03-25T07:58:50;13.43;;;3.88;;
52668;SDS011;59898;52.786;6.892;2023-03-25T08:02:12;17.38;;;4.90;;
52668;SDS011;59898;52.786;6.892;2023-03-25T08:05:33;12.95;;;4.45;;
52668;SDS011;59898;52.786;6.892;2023-03-25T08:08:54;7.63;;;4.10;;
52668;SDS011;59898;52.786;6.892;2023-03-25T08:12:15;13.63;;;5.10;;
52668;SDS011;59898;52.786;6.892;2023-03-25T08:15:36;15.57;;;4.38;;
52668;SDS011;59898;52.786;6.892;2023-03-25T08:18:57;10.23;;;3.63;;
52668;SDS011;59898;52.786;6.892;2023-03-25T08:22:18;18.58;;;4.43;;
52668;SDS011;59898;52.786;6.892;2023-03-25T08:25:38;14.77;;;5.13;;
52668;SDS011;59898;52.786;6.892;2023-03-25T08:29:02;20.88;;;4.63;;
52668;SDS011;59898;52.786;6.892;2023-03-25T08:32:24;10.27;;;3.78;;
52668;SDS011;59898;52.786;6.892;2023-03-25T08:35:47;11.55;;;5.20;;
52668;SDS011;59898;52.786;6.892;2023-03-25T08:39:10;14.90;;;3.70;;
52668;SDS011;59898;52.786;6.892;2023-03-25T08:42:31;11.38;;;4.13;;
52668;SDS011;59898;52.786;6.892;2023-03-25T08:45:52;16.55;;;4.38;;
52668;SDS011;59898;52.786;6.892;2023-03-25T08:49:13;14.45;;;3.83;;
52668;SDS011;59898;52.786;6.892;2023-03-25T08:52:33;16.15;;;4.25;;
52668;SDS011;59898;52.786;6.892;2023-03-25T08:55:55;15.13;;;3.92;;
52668;SDS011;59898;52.786;6.892;2023-03-25T09:02:38;12.55;;;4.03;;
52668;SDS011;59898;52.786;6.892;2023-03-25T09:06:04;11.10;;;4.00;;
52668;SDS011;59898;52.786;6.892;2023-03-25T09:09:26;18.70;;;4.35;;
52668;SDS011;59898;52.786;6.892;2023-03-25T09:12:46;13.77;;;4.90;;
52668;SDS011;59898;52.786;6.892;2023-03-25T09:16:07;12.50;;;4.85;;
52668;SDS011;59898;52.786;6.892;2023-03-25T09:19:29;16.52;;;4.50;;
52668;SDS011;59898;52.786;6.892;2023-03-25T09:22:49;19.08;;;4.63;;
52668;SDS011;59898;52.786;6.892;2023-03-25T09:26:10;13.75;;;4.47;;
52668;SDS011;59898;52.786;6.892;2023-03-25T09:29:31;23.73;;;5.38;;
52668;SDS011;59898;52.786;6.892;2023-03-25T09:32:52;14.63;;;4.47;;
52668;SDS011;59898;52.786;6.892;2023-03-25T09:36:13;11.93;;;4.10;;
52668;SDS011;59898;52.786;6.892;2023-03-25T09:39:33;14.02;;;5.88;;
52668;SDS011;59898;52.786;6.892;2023-03-25T09:46:28;16.27;;;4.20;;
52668;SDS011;59898;52.786;6.892;2023-03-25T09:49:50;14.73;;;4.00;;
52668;SDS011;59898;52.786;6.892;2023-03-25T09:56:54;20.23;;;5.57;;
52668;SDS011;59898;52.786;6.892;2023-03-25T10:00:19;10.95;;;4.57;;
52668;SDS011;59898;52.786;6.892;2023-03-25T10:03:47;19.52;;;4.13;;
52668;SDS011;59898;52.786;6.892;2023-03-25T10:18:42;8.55;;;3.75;;
52668;SDS011;59898;52.786;6.892;2023-03-25T10:22:15;15.90;;;4.90;;
52668;SDS011;59898;52.786;6.892;2023-03-25T10:25:38;11.70;;;3.28;;
52668;SDS011;59898;52.786;6.892;2023-03-25T10:29:03;12.95;;;3.50;;
52668;SDS011;59898;52.786;6.892;2023-03-25T10:35:57;19.00;;;3.55;;
52668;SDS011;59898;52.786;6.892;2023-03-25T10:39:21;9.15;;;2.80;;
52668;SDS011;59898;52.786;6.892;2023-03-25T10:42:49;11.88;;;3.55;;
52668;SDS011;59898;52.786;6.892;2023-03-25T10:50:08;17.23;;;3.33;;
52668;SDS011;59898;52.786;6.892;2023-03-25T10:53:34;14.40;;;3.70;;
52668;SDS011;59898;52.786;6.892;2023-03-25T10:56:57;19.40;;;5.05;;
52668;SDS011;59898;52.786;6.892;2023-03-25T11:00:24;15.95;;;4.43;;
52668;SDS011;59898;52.786;6.892;2023-03-25T11:03:50;12.40;;;4.15;;
52668;SDS011;59898;52.786;6.892;2023-03-25T11:07:14;15.85;;;5.20;;
52668;SDS011;59898;52.786;6.892;2023-03-25T11:10:38;9.88;;;4.07;;
52668;SDS011;59898;52.786;6.892;2023-03-25T11:14:00;13.82;;;4.22;;
52668;SDS011;59898;52.786;6.892;2023-03-25T11:17:21;13.05;;;3.65;;
52668;SDS011;59898;52.786;6.892;2023-03-25T11:20:49;14.27;;;4.18;;
52668;SDS011;59898;52.786;6.892;2023-03-25T11:24:20;12.68;;;3.67;;
52668;SDS011;59898;52.786;6.892;2023-03-25T11:27:54;9.80;;;3.55;;
52668;SDS011;59898;52.786;6.892;2023-03-25T11:31:19;14.35;;;3.65;;
52668;SDS011;59898;52.786;6.892;2023-03-25T11:34:45;9.93;;;3.17;;
52668;SDS011;59898;52.786;6.892;2023-03-25T11:38:21;12.15;;;3.55;;
52668;SDS011;59898;52.786;6.892;2023-03-25T11:41:42;14.80;;;3.88;;
52668;SDS011;59898;52.786;6.892;2023-03-25T11:45:04;9.32;;;3.65;;
52668;SDS011;59898;52.786;6.892;2023-03-25T11:48:28;12.23;;;3.33;;
52668;SDS011;59898;52.786;6.892;2023-03-25T11:56:08;20.27;;;4.88;;
52668;SDS011;59898;52.786;6.892;2023-03-25T11:59:37;15.18;;;5.60;;
52668;SDS011;59898;52.786;6.892;2023-03-25T12:06:33;11.32;;;4.03;;
52668;SDS011;59898;52.786;6.892;2023-03-25T12:09:54;13.40;;;3.80;;
52668;SDS011;59898;52.786;6.892;2023-03-25T12:24:02;13.25;;;4.65;;
52668;SDS011;59898;52.786;6.892;2023-03-25T12:34:48;8.05;;;3.33;;
52668;SDS011;59898;52.786;6.892;2023-03-25T12:48:55;15.73;;;4.03;;
52668;SDS011;59898;52.786;6.892;2023-03-25T12:56:23;11.85;;;3.78;;
52668;SDS011;59898;52.786;6.892;2023-03-25T13:04:06;10.05;;;3.38;;
52668;SDS011;59898;52.786;6.892;2023-03-25T13:07:38;12.00;;;3.08;;
52668;SDS011;59898;52.786;6.892;2023-03-25T13:11:10;9.98;;;3.75;;
52668;SDS011;59898;52.786;6.892;2023-03-25T13:14:38;19.80;;;4.13;;
52668;SDS011;59898;52.786;6.892;2023-03-25T13:18:15;12.68;;;3.88;;
52668;SDS011;59898;52.786;6.892;2023-03-25T13:21:42;22.80;;;4.60;;
52668;SDS011;59898;52.786;6.892;2023-03-25T13:25:15;17.00;;;4.63;;
52668;SDS011;59898;52.786;6.892;2023-03-25T13:28:46;15.00;;;3.53;;
52668;SDS011;59898;52.786;6.892;2023-03-25T13:32:18;8.98;;;3.35;;
52668;SDS011;59898;52.786;6.892;2023-03-25T13:43:31;13.02;;;3.58;;
52668;SDS011;59898;52.786;6.892;2023-03-25T13:47:03;8.02;;;2.72;;
52668;SDS011;59898;52.786;6.892;2023-03-25T13:50:31;12.90;;;3.20;;
52668;SDS011;59898;52.786;6.892;2023-03-25T13:53:57;7.63;;;2.67;;
52668;SDS011;59898;52.786;6.892;2023-03-25T14:15:43;11.32;;;3.55;;
52668;SDS011;59898;52.786;6.892;2023-03-25T14:19:13;11.27;;;2.97;;
52668;SDS011;59898;52.786;6.892;2023-03-25T14:22:40;13.38;;;3.58;;
52668;SDS011;59898;52.786;6.892;2023-03-25T14:26:01;9.95;;;3.78;;
52668;SDS011;59898;52.786;6.892;2023-03-25T14:29:30;12.40;;;3.38;;
52668;SDS011;59898;52.786;6.892;2023-03-25T14:32:57;13.98;;;3.10;;
52668;SDS011;59898;52.786;6.892;2023-03-25T14:39:48;10.23;;;3.22;;
52668;SDS011;59898;52.786;6.892;2023-03-25T14:43:42;11.32;;;2.90;;
52668;SDS011;59898;52.786;6.892;2023-03-25T14:50:35;6.80;;;2.65;;
52668;SDS011;59898;52.786;6.892;2023-03-25T14:57:24;7.88;;;3.00;;
52668;SDS011;59898;52.786;6.892;2023-03-25T15:00:54;5.70;;;2.83;;
52668;SDS011;59898;52.786;6.892;2023-03-25T15:07:52;6.97;;;1.98;;
52668;SDS011;59898;52.786;6.892;2023-03-25T15:11:24;2.72;;;1.90;;
52668;SDS011;59898;52.786;6.892;2023-03-25T15:14:53;6.55;;;2.30;;
52668;SDS011;59898;52.786;6.892;2023-03-25T15:25:22;6.53;;;2.22;;
52668;SDS011;59898;52.786;6.892;2023-03-25T15:51:17;8.30;;;1.85;;
52668;SDS011;59898;52.786;6.892;2023-03-25T16:02:26;6.82;;;2.10;;
52668;SDS011;59898;52.786;6.892;2023-03-25T16:06:23;6.00;;;2.53;;
52668;SDS011;59898;52.786;6.892;2023-03-25T16:09:46;7.85;;;3.22;;
52668;SDS011;59898;52.786;6.892;2023-03-25T16:13:11;4.18;;;2.35;;
52668;SDS011;59898;52.786;6.892;2023-03-25T16:16:36;4.10;;;1.90;;
52668;SDS011;59898;52.786;6.892;2023-03-25T16:20:20;8.27;;;2.17;;
52668;SDS011;59898;52.786;6.892;2023-03-25T16:23:42;6.50;;;1.92;;
52668;SDS011;59898;52.786;6.892;2023-03-25T16:27:09;3.85;;;1.95;;
52668;SDS011;59898;52.786;6.892;2023-03-25T16:30:35;4.40;;;1.98;;
52668;SDS011;59898;52.786;6.892;2023-03-25T16:33:58;4.50;;;1.77;;
52668;SDS011;59898;52.786;6.892;2023-03-25T16:37:20;9.73;;;2.08;;
52668;SDS011;59898;52.786;6.892;2023-03-25T16:40:41;4.60;;;2.42;;
52668;SDS011;59898;52.786;6.892;2023-03-25T16:44:03;5.78;;;1.92;;
52668;SDS011;59898;52.786;6.892;2023-03-25T16:47:23;4.82;;;2.28;;
52668;SDS011;59898;52.786;6.892;2023-03-25T16:50:44;6.97;;;3.10;;
52668;SDS011;59898;52.786;6.892;2023-03-25T16:54:09;3.75;;;2.33;;
52668;SDS011;59898;52.786;6.892;2023-03-25T16:57:39;7.18;;;2.08;;
52668;SDS011;59898;52.786;6.892;2023-03-25T17:01:00;7.95;;;2.20;;
52668;SDS011;59898;52.786;6.892;2023-03-25T17:04:23;8.25;;;3.33;;
52668;SDS011;59898;52.786;6.892;2023-03-25T17:07:47;11.20;;;3.20;;
52668;SDS011;59898;52.786;6.892;2023-03-25T17:11:10;14.30;;;3.38;;
52668;SDS011;59898;52.786;6.892;2023-03-25T17:14:34;10.35;;;3.50;;
52668;SDS011;59898;52.786;6.892;2023-03-25T17:17:57;8.05;;;3.55;;
52668;SDS011;59898;52.786;6.892;2023-03-25T17:24:52;14.55;;;3.55;;
52668;SDS011;59898;52.786;6.892;2023-03-25T17:28:25;13.88;;;3.65;;
52668;SDS011;59898;52.786;6.892;2023-03-25T17:31:55;9.15;;;3.47;;
52668;SDS011;59898;52.786;6.892;2023-03-25T17:35:19;10.68;;;3.17;;
52668;SDS011;59898;52.786;6.892;2023-03-25T17:38:46;11.07;;;4.13;;
52668;SDS011;59898;52.786;6.892;2023-03-25T17:42:18;5.40;;;2.83;;
52668;SDS011;59898;52.786;6.892;2023-03-25T17:45:43;12.87;;;2.97;;
52668;SDS011;59898;52.786;6.892;2023-03-25T17:49:10;7.93;;;3.13;;
52668;SDS011;59898;52.786;6.892;2023-03-25T17:52:40;11.77;;;3.78;;
52668;SDS011;59898;52.786;6.892;2023-03-25T17:56:01;9.73;;;2.60;;
52668;SDS011;59898;52.786;6.892;2023-03-25T17:59:22;8.38;;;3.25;;
52668;SDS011;59898;52.786;6.892;2023-03-25T18:02:46;11.57;;;3.42;;
52668;SDS011;59898;52.786;6.892;2023-03-25T18:06:07;13.65;;;3.10;;
52668;SDS011;59898;52.786;6.892;2023-03-25T18:12:51;9.52;;;2.92;;
52668;SDS011;59898;52.786;6.892;2023-03-25T18:16:15;12.73;;;3.70;;
52668;SDS011;59898;52.786;6.892;2023-03-25T18:19:38;13.20;;;3.33;;
52668;SDS011;59898;52.786;6.892;2023-03-25T18:22:59;11.90;;;3.53;;
52668;SDS011;59898;52.786;6.892;2023-03-25T18:26:20;7.85;;;2.92;;
52668;SDS011;59898;52.786;6.892;2023-03-25T18:29:41;12.57;;;3.10;;
52668;SDS011;59898;52.786;6.892;2023-03-25T18:33:02;11.85;;;2.83;;
52668;SDS011;59898;52.786;6.892;2023-03-25T18:36:23;12.48;;;3.53;;
52668;SDS011;59898;52.786;6.892;2023-03-25T18:39:43;14.55;;;3.05;;
52668;SDS011;59898;52.786;6.892;2023-03-25T18:43:04;10.18;;;3.78;;
52668;SDS011;59898;52.786;6.892;2023-03-25T18:46:25;11.50;;;3.08;;
52668;SDS011;59898;52.786;6.892;2023-03-25T18:49:46;13.95;;;3.33;;
52668;SDS011;59898;52.786;6.892;2023-03-25T18:53:06;14.98;;;3.30;;
52668;SDS011;59898;52.786;6.892;2023-03-25T18:56:27;11.13;;;3.60;;
52668;SDS011;59898;52.786;6.892;2023-03-25T18:59:48;6.13;;;2.55;;
52668;SDS011;59898;52.786;6.892;2023-03-25T19:03:08;9.48;;;3.03;;
52668;SDS011;59898;52.786;6.892;2023-03-25T19:06:30;16.67;;;3.60;;
52668;SDS011;59898;52.786;6.892;2023-03-25T19:09:51;13.55;;;4.78;;
52668;SDS011;59898;52.786;6.892;2023-03-25T19:13:12;11.35;;;3.40;;
52668;SDS011;59898;52.786;6.892;2023-03-25T19:16:33;11.52;;;3.13;;
52668;SDS011;59898;52.786;6.892;2023-03-25T19:19:54;13.00;;;4.05;;
52668;SDS011;59898;52.786;6.892;2023-03-25T19:23:15;9.55;;;3.70;;
52668;SDS011;59898;52.786;6.892;2023-03-25T19:26:36;14.10;;;4.38;;
52668;SDS011;59898;52.786;6.892;2023-03-25T19:29:58;12.15;;;4.65;;
52668;SDS011;59898;52.786;6.892;2023-03-25T19:33:19;13.52;;;4.32;;
52668;SDS011;59898;52.786;6.892;2023-03-25T19:36:40;15.13;;;4.57;;
52668;SDS011;59898;52.786;6.892;2023-03-25T19:40:01;10.55;;;3.28;;
52668;SDS011;59898;52.786;6.892;2023-03-25T19:43:27;13.75;;;3.95;;
52668;SDS011;59898;52.786;6.892;2023-03-25T19:46:48;8.73;;;3.13;;
52668;SDS011;59898;52.786;6.892;2023-03-25T19:50:09;15.77;;;5.53;;
52668;SDS011;59898;52.786;6.892;2023-03-25T19:53:31;13.88;;;4.13;;
52668;SDS011;59898;52.786;6.892;2023-03-25T19:56:52;10.10;;;3.08;;
52668;SDS011;59898;52.786;6.892;2023-03-25T20:00:14;11.70;;;3.28;;
52668;SDS011;59898;52.786;6.892;2023-03-25T20:03:39;10.35;;;4.00;;
52668;SDS011;59898;52.786;6.892;2023-03-25T20:07:00;7.82;;;4.18;;
52668;SDS011;59898;52.786;6.892;2023-03-25T20:10:21;13.23;;;4.32;;
52668;SDS011;59898;52.786;6.892;2023-03-25T20:13:47;9.38;;;4.00;;
52668;SDS011;59898;52.786;6.892;2023-03-25T20:17:08;9.07;;;3.83;;
52668;SDS011;59898;52.786;6.892;2023-03-25T20:20:29;16.20;;;3.60;;
52668;SDS011;59898;52.786;6.892;2023-03-25T20:23:49;9.13;;;3.88;;
52668;SDS011;59898;52.786;6.892;2023-03-25T20:27:11;10.00;;;3.33;;
52668;SDS011;59898;52.786;6.892;2023-03-25T20:30:31;12.38;;;4.97;;
52668;SDS011;59898;52.786;6.892;2023-03-25T20:33:54;13.77;;;4.32;;
52668;SDS011;59898;52.786;6.892;2023-03-25T20:37:15;5.05;;;2.35;;
52668;SDS011;59898;52.786;6.892;2023-03-25T20:40:36;11.05;;;3.45;;
52668;SDS011;59898;52.786;6.892;2023-03-25T20:43:57;10.38;;;3.03;;
52668;SDS011;59898;52.786;6.892;2023-03-25T20:47:18;5.60;;;3.03;;
52668;SDS011;59898;52.786;6.892;2023-03-25T20:50:38;9.48;;;3.53;;
52668;SDS011;59898;52.786;6.892;2023-03-25T20:53:59;15.55;;;2.80;;
52668;SDS011;59898;52.786;6.892;2023-03-25T20:57:20;9.75;;;2.55;;
52668;SDS011;59898;52.786;6.892;2023-03-25T21:00:41;7.03;;;3.47;;
52668;SDS011;59898;52.786;6.892;2023-03-25T21:04:03;8.18;;;2.80;;
52668;SDS011;59898;52.786;6.892;2023-03-25T21:07:28;9.63;;;2.83;;
52668;SDS011;59898;52.786;6.892;2023-03-25T21:10:50;7.40;;;2.53;;
52668;SDS011;59898;52.786;6.892;2023-03-25T21:14:11;9.48;;;2.38;;
52668;SDS011;59898;52.786;6.892;2023-03-25T21:17:32;7.50;;;2.38;;
52668;SDS011;59898;52.786;6.892;2023-03-25T21:20:53;13.73;;;3.53;;
52668;SDS011;59898;52.786;6.892;2023-03-25T21:24:16;15.27;;;4.30;;
52668;SDS011;59898;52.786;6.892;2023-03-25T21:27:40;9.23;;;2.88;;
52668;SDS011;59898;52.786;6.892;2023-03-25T21:31:04;10.88;;;2.90;;
52668;SDS011;59898;52.786;6.892;2023-03-25T21:34:34;13.00;;;2.95;;
52668;SDS011;59898;52.786;6.892;2023-03-25T21:37:55;12.57;;;4.00;;
52668;SDS011;59898;52.786;6.892;2023-03-25T21:41:19;11.38;;;3.40;;
52668;SDS011;59898;52.786;6.892;2023-03-25T21:44:40;13.73;;;3.65;;
52668;SDS011;59898;52.786;6.892;2023-03-25T21:48:02;9.20;;;3.35;;
52668;SDS011;59898;52.786;6.892;2023-03-25T21:51:24;7.25;;;2.88;;
52668;SDS011;59898;52.786;6.892;2023-03-25T21:54:45;5.95;;;2.95;;
52668;SDS011;59898;52.786;6.892;2023-03-25T21:58:07;11.95;;;3.13;;
52668;SDS011;59898;52.786;6.892;2023-03-25T22:01:29;9.52;;;2.90;;
52668;SDS011;59898;52.786;6.892;2023-03-25T22:04:51;11.43;;;2.60;;
52668;SDS011;59898;52.786;6.892;2023-03-25T22:08:12;10.35;;;3.70;;
52668;SDS011;59898;52.786;6.892;2023-03-25T22:11:33;7.72;;;3.10;;
52668;SDS011;59898;52.786;6.892;2023-03-25T22:14:56;13.93;;;3.33;;
52668;SDS011;59898;52.786;6.892;2023-03-25T22:18:17;10.90;;;2.83;;
52668;SDS011;59898;52.786;6.892;2023-03-25T22:21:37;12.23;;;3.47;;
52668;SDS011;59898;52.786;6.892;2023-03-25T22:24:58;8.07;;;3.30;;
52668;SDS011;59898;52.786;6.892;2023-03-25T22:28:19;11.00;;;3.33;;
52668;SDS011;59898;52.786;6.892;2023-03-25T22:31:40;10.40;;;3.03;;
52668;SDS011;59898;52.786;6.892;2023-03-25T22:35:01;10.73;;;2.85;;
52668;SDS011;59898;52.786;6.892;2023-03-25T22:38:22;14.10;;;4.53;;
52668;SDS011;59898;52.786;6.892;2023-03-25T22:41:43;10.60;;;4.28;;
52668;SDS011;59898;52.786;6.892;2023-03-25T22:45:05;15.70;;;2.88;;
52668;SDS011;59898;52.786;6.892;2023-03-25T22:48:27;14.98;;;3.47;;
52668;SDS011;59898;52.786;6.892;2023-03-25T22:51:48;10.10;;;3.73;;
52668;SDS011;59898;52.786;6.892;2023-03-25T22:55:10;13.07;;;3.80;;
52668;SDS011;59898;52.786;6.892;2023-03-25T22:58:31;12.10;;;3.35;;
52668;SDS011;59898;52.786;6.892;2023-03-25T23:01:52;12.02;;;4.18;;
52668;SDS011;59898;52.786;6.892;2023-03-25T23:05:13;14.63;;;3.35;;
52668;SDS011;59898;52.786;6.892;2023-03-25T23:08:34;13.00;;;4.05;;
52668;SDS011;59898;52.786;6.892;2023-03-25T23:11:57;9.98;;;3.17;;
52668;SDS011;59898;52.786;6.892;2023-03-25T23:15:18;13.57;;;3.13;;
52668;SDS011;59898;52.786;6.892;2023-03-25T23:18:39;11.68;;;3.00;;